Tiempo atmosférico en la estación meteorológica de Ólvega, Soria (1039 m.)



Fecha
DESCASC
Temp. máxima en grados centígrados (hora)
DESCASC
Temp. mínima en grados centígrados (hora)
DESCASC
Temp. media en grados centígrados
DESCASC
Racha de viento máxima en m/sg (hora)
DESCASC
Velocidad máxima media en intervalos de 10 minutos(hora)
DESCASC
Precipitaciones diarias en mm
DESCASC
Precipitaciones de 00:00 a 06:00 en mm
DESCASC
Precipitaciones de 06:00 a 12:00 en mm
DESCASC
Precipitaciones de 12:00 a 18:00 en mm
DESCASC
Precipitaciones de 18:00 a 24:00 en mm
DESCASC
10-07-2020 25.8 (17:00) 11.9 (06:50) 18.8 14.17 (00:20) 9.17 (00:20) 0 0 0 0 0
09-07-2020 30.4 (15:10) 15.7 (07:00) 23 14.17 (19:00) 8.89 (16:30) 0.2 0 0.2 0 0
08-07-2020 31.1 (16:50) 12.3 (06:40) 21.7 20 (19:00) 9.44 (18:50) 0 0 0 0 0
07-07-2020 27.9 (16:10) 7.7 (06:50) 17.8 7.5 (16:50) 4.72 (17:40) 0 0 0 0 0
06-07-2020 23.6 (16:50) 12.6 (00:00) 18.1 11.11 (17:40) 6.67 (18:40) 0 0 0 0 0
05-07-2020 30.1 (16:40) 11.1 (06:30) 20.6 8.61 (20:20) 5.56 (20:20) 0 0 0 0 0
04-07-2020 26.2 (17:30) 4.9 (04:50) 15.6 8.89 (17:40) 5 (20:00) 0 0 0 0 0
03-07-2020 20.8 (17:10) 10.5 (06:50) 15.6 8.61 (16:40) 5 (01:50) 0 0 0 0 0
02-07-2020 22.6 (13:50) 11.7 (00:00) 17.2 10 (15:20) 6.11 (17:00) 0 0 0 0 0
01-07-2020 30.8 (15:20) 14.8 (00:00) 22.8 10.28 (13:50) 6.94 (15:50) 0 0 0 0 0
30-06-2020 27.7 (18:00) 11.4 (00:00) 19.6 7.22 (18:20) 4.44 (18:20) 1.8 0 0 1.8 0
29-06-2020 24.9 (16:20) 13.7 (00:00) 19.3 9.72 (16:40) 5.83 (17:10) 0 0 0 0 0
28-06-2020 29.9 (17:40) 14 (00:00) 21.9 8.33 (21:00) 5.28 (18:30) 0 0 0 0 0
27-06-2020 28.1 (16:20) 11.9 (00:00) 20 8.89 (16:40) 4.44 (16:10) 0 0 0 0 0
26-06-2020 28.3 (17:40) 14.5 (00:00) 21.4 12.78 (02:10) 9.17 (02:10) 0.2 0 0 0.2 0
25-06-2020 30.5 (13:50) 14.4 (00:00) 22.4 10.83 (00:10) 7.22 (00:10) 16.4 0 0 9.4 7
24-06-2020 29.8 (12:00) 16 (00:00) 22.9 13.89 (15:40) 8.33 (16:30) 0.2 0.2 0 0 0
23-06-2020 30.9 (15:20) 11.9 (00:00) 21.4 7.22 (14:40) 5 (18:10) 0.6 0 0 0 0.6
22-06-2020 27.2 (18:10) 11.5 (00:00) 19.4 7.5 (16:50) 3.89 (17:20) 0 0 0 0 0
21-06-2020 25.9 (16:50) 10.3 (00:00) 18.1 10 (17:40) 6.11 (19:50) 0 0 0 0 0
20-06-2020 28.1 (16:50) 9.1 (00:00) 18.6 9.44 (14:40) 5.28 (15:00) 0 0 0 0 0
19-06-2020 26 (17:00) 7.1 (00:00) 16.5 16.39 (17:00) 4.72 (15:20) 0 0 0 0 0
18-06-2020 19.5 (14:40) 6 (05:20) 12.8 9.44 (15:40) 5.28 (15:40) 0 0 0 0 0
17-06-2020 17.1 (15:50) 8.8 (00:00) 13 6.67 (18:20) 4.17 (21:10) 1 0 1 0 0
16-06-2020 20.7 (15:50) 9.9 (00:00) 15.3 12.5 (17:00) 6.67 (18:00) 2.4 0 0 0 2.4
15-06-2020 22.3 (16:10) 8 (00:00) 15.1 8.06 (14:00) 4.72 (14:30) 0 0 0 0 0
14-06-2020 20.4 (14:50) 9.3 (00:00) 14.8 8.61 (15:00) 4.44 (15:20) 0 0 0 0 0
13-06-2020 18.8 (18:50) 8.2 (00:00) 13.5 11.94 (11:00) 7.22 (12:10) 0 0 0 0 0
12-06-2020 14.9 (18:00) 6.8 (00:00) 10.8 14.72 (12:40) 8.33 (14:30) 8.6 0 0 0.6 8
11-06-2020 20.3 (18:00) 9.1 (00:00) 14.7 13.61 (18:40) 8.33 (18:40) 0 0 0 0 0

Gráficas

Temp. máximas Temp. mínimas Temp. medias Precipitaciones Rachas de viento máximas Velocidades máximas media en intervalos de 10 minutos

Datos horarios

Fecha y hora oficial Temperatura (ºC) Velocidad del viento (km/h) Dirección del viento Racha (km/h) Dirección de racha Precipitación (mm) Presión (hPa) Tendencia (hPa) Humedad (%)
2020-07-10 23:00:00 15.3 10 Norte 24 Norte 0 -- -- 83
2020-07-10 22:00:00 16.2 10 Norte 22 Norte 0 -- -- 80
2020-07-10 21:00:00 18.1 13 Norte 26 Noroeste 0 -- -- 74
2020-07-10 20:00:00 21.4 17 Norte 31 Nordeste 0 -- -- 63
2020-07-10 19:00:00 23.3 20 Norte 33 Nordeste 0 -- -- 57
2020-07-10 18:00:00 25.1 17 Norte 36 Nordeste 0 -- -- 51
2020-07-10 17:00:00 25.8 17 Norte 32 Norte 0 -- -- 49
2020-07-10 16:00:00 25.4 17 Norte 30 Nordeste 0 -- -- 49
2020-07-10 15:00:00 24.8 20 Nordeste 33 Nordeste 0 -- -- 52
2020-07-10 14:00:00 24.3 17 Norte 28 Norte 0 -- -- 52
2020-07-10 13:00:00 23.5 11 Norte 26 Norte 0 -- -- 53
2020-07-10 12:00:00 23.2 10 Norte 21 Nordeste 0 -- -- 54
2020-07-10 11:00:00 22.1 12 Norte 20 Nordeste 0 -- -- 59
2020-07-10 10:00:00 22.1 8 Nordeste 13 Nordeste 0 -- -- 56
2020-07-10 09:00:00 22.3 2 Este 6 Sudeste 0 -- -- 54
2020-07-10 08:00:00 16.7 0 Calma 6 Sudeste 0 -- -- 75
2020-07-10 07:00:00 11.9 2 Sudoeste 8 Este 0 -- -- 89
2020-07-10 06:00:00 12.2 0 Calma 9 Sudoeste 0 -- -- 86
2020-07-10 05:00:00 13.5 0 Calma 8 Sudeste 0 -- -- 77
2020-07-10 04:00:00 14.8 6 Sudeste 11 Sudeste 0 -- -- 73
2020-07-10 03:00:00 15.3 4 Sudeste 11 Sudeste 0 -- -- 71
2020-07-10 02:00:00 17.6 6 Sudeste 12 Noroeste 0 -- -- 63
2020-07-10 01:00:00 20.6 4 Sudoeste 51 Este 0 -- -- 51
2020-07-10 00:00:00 18.6 24 Sudeste 39 Sudeste 0 -- -- 59
2020-07-09 23:00:00 18.6 12 Este 32 Sudeste 0 -- -- 61
2020-07-09 22:00:00 20.2 14 Sudeste 32 Este 0 -- -- 51
2020-07-09 21:00:00 20.2 9 Sur 24 Sur 0 -- -- 51
2020-07-09 20:00:00 22.2 5 Este 41 Sudoeste 0 -- -- 45
2020-07-09 19:00:00 23.8 27 Sudoeste 51 Sudoeste 0 -- -- 39
2020-07-09 18:00:00 25.4 23 Sur 35 Sur 0 -- -- 37
2020-07-09 17:00:00 24.9 19 Sur 47 Sudeste 0 -- -- 40
2020-07-09 16:00:00 27.6 25 Sudeste 39 Este 0 -- -- 39
2020-07-09 15:00:00 29.9 21 Sudeste 37 Este 0 -- -- 32
2020-07-09 14:00:00 28.8 18 Sudeste 35 Sudeste 0 -- -- 34
2020-07-09 13:00:00 27.9 10 Norte 27 Nordeste 0 -- -- 43
2020-07-09 12:00:00 26.5 12 Norte 17 Norte 0 -- -- 42
2020-07-09 11:00:00 26 0 Calma 8 Sudeste 0 -- -- 43
2020-07-09 10:00:00 21.7 4 Sur 8 Sur 0 -- -- 58
2020-07-09 09:00:00 18.9 5 Sudeste 21 Este 0.2 -- -- 71
2020-07-09 08:00:00 17 5 Sudeste 9 Sudeste 0 -- -- 73
2020-07-09 07:00:00 15.7 5 Sur 12 Sudeste 0 -- -- 73
2020-07-09 06:00:00 16.9 4 Este 15 Sudeste 0 -- -- 64
2020-07-09 05:00:00 18.6 9 Sur 16 Sur 0 -- -- 69
2020-07-09 04:00:00 19.5 4 Sur 10 Norte 0 -- -- 64
2020-07-09 03:00:00 20.6 5 Noroeste 11 Sudoeste 0 -- -- 58
2020-07-09 02:00:00 20.6 5 Sur 14 Sudeste 0 -- -- 50
2020-07-09 01:00:00 20.7 6 Sudeste 24 Este 0 -- -- 49
2020-07-09 00:00:00 22.3 5 Noroeste 40 Este 0 -- -- 43
2020-07-08 23:00:00 23 26 Sudeste 50 Sudeste 0 -- -- 42
2020-07-08 22:00:00 25.9 24 Sudeste 44 Sur 0 -- -- 31
2020-07-08 21:00:00 25.8 23 Sudeste 36 Sudeste 0 -- -- 30
2020-07-08 20:00:00 24.5 20 Sudeste 54 Sudeste 0 -- -- 35
2020-07-08 19:00:00 26.7 30 Sur 72 Sudeste 0 -- -- 27
2020-07-08 18:00:00 25.5 6 Noroeste 19 Norte 0 -- -- 48
2020-07-08 17:00:00 29.8 12 Noroeste 18 Norte 0 -- -- 39
2020-07-08 16:00:00 29 5 Noroeste 17 Nordeste 0 -- -- 41
2020-07-08 15:00:00 29.2 3 Nordeste 13 Norte 0 -- -- 39
2020-07-08 14:00:00 27.6 6 Noroeste 15 Noroeste 0 -- -- 42
2020-07-08 13:00:00 24 10 Norte 41 Este 0 -- -- 53
2020-07-08 12:00:00 25.4 21 Sudeste 35 Sudeste 0 -- -- 41
2020-07-08 11:00:00 27.1 14 Sur 26 Sur 0 -- -- 41
2020-07-08 10:00:00 23.5 10 Oeste 34 Sudeste 0 -- -- 46
2020-07-08 09:00:00 23.7 6 Norte 14 Sudoeste 0 -- -- 42
2020-07-08 08:00:00 17.4 4 Este 8 Este 0 -- -- 59
2020-07-08 07:00:00 13 2 Sudoeste 9 Sur 0 -- -- 68
2020-07-08 06:00:00 12.7 0 Calma 14 Sudeste 0 -- -- 68
2020-07-08 05:00:00 13.6 3 Sur 13 Sudeste 0 -- -- 65
2020-07-08 04:00:00 13.6 2 Sur 9 Sudeste 0 -- -- 74
2020-07-08 03:00:00 13.5 4 Sudeste 8 Sudeste 0 -- -- 74
2020-07-08 02:00:00 13.7 2 Sudeste 8 Sudeste 0 -- -- 73
2020-07-08 01:00:00 15.1 5 Sudeste 9 Sudeste 0 -- -- 65
2020-07-08 00:00:00 15.1 6 Sudeste 9 Sudeste 0 -- -- 67
2020-07-07 23:00:00 17.7 6 Sudoeste 9 Sudoeste 0 -- -- 60
2020-07-07 22:00:00 20.3 4 Noroeste 12 Norte 0 -- -- 50
2020-07-07 21:00:00 23.6 8 Norte 20 Nordeste 0 -- -- 40
2020-07-07 20:00:00 25.8 10 Norte 19 Nordeste 0 -- -- 32
2020-07-07 19:00:00 26.8 12 Norte 22 Norte 0 -- -- 30
2020-07-07 18:00:00 27.3 13 Norte 25 Norte 0 -- -- 26
2020-07-07 17:00:00 27.4 15 Norte 27 Nordeste 0 -- -- 28
2020-07-07 16:00:00 27.4 15 Norte 24 Norte 0 -- -- 28
2020-07-07 15:00:00 27.2 14 Norte 25 Norte 0 -- -- 27
2020-07-07 14:00:00 27.4 8 Norte 20 Nordeste 0 -- -- 25
2020-07-07 13:00:00 26.3 5 Norte 17 Norte 0 -- -- 20
2020-07-07 12:00:00 24.4 6 Norte 17 Noroeste 0 -- -- 21
2020-07-07 11:00:00 23.8 8 Noroeste 14 Noroeste 0 -- -- 15
2020-07-07 10:00:00 23.3 5 Noroeste 10 Noroeste 0 -- -- 15
2020-07-07 09:00:00 22.1 2 Nordeste 8 Sudeste 0 -- -- 16
2020-07-07 08:00:00 15.2 6 Sudeste 14 Sudeste 0 -- -- 37
2020-07-07 07:00:00 7.7 6 Sur 13 Sudeste 0 -- -- 55
2020-07-07 06:00:00 8.3 7 Sudeste 13 Sudeste 0 -- -- 53
2020-07-07 05:00:00 10 9 Sudeste 15 Sudeste 0 -- -- 47
2020-07-07 04:00:00 9.4 8 Sudeste 14 Sudeste 0 -- -- 54
2020-07-07 03:00:00 10.1 6 Sudeste 10 Sudeste 0 -- -- 58
2020-07-07 02:00:00 11 5 Sudeste 11 Sur 0 -- -- 59
2020-07-07 01:00:00 10.6 4 Sur 12 Nordeste 0 -- -- 71
2020-07-07 00:00:00 12.6 6 Este 15 Nordeste 0 -- -- 73
2020-07-06 23:00:00 14.6 10 Nordeste 17 Norte 0 -- -- 75
2020-07-06 22:00:00 15.3 8 Nordeste 28 Norte 0 -- -- 76
2020-07-06 21:00:00 17.8 14 Norte 30 Norte 0 -- -- 67
2020-07-06 20:00:00 19.7 18 Norte 33 Norte 0 -- -- 60
2020-07-06 19:00:00 21.1 21 Norte 38 Norte 0 -- -- 55
2020-07-06 18:00:00 22.6 23 Norte 40 Norte 0 -- -- 53
2020-07-06 17:00:00 23.3 19 Norte 35 Norte 0 -- -- 52
2020-07-06 16:00:00 23.4 20 Norte 33 Norte 0 -- -- 50
2020-07-06 15:00:00 23.1 19 Norte 32 Norte 0 -- -- 51
2020-07-06 14:00:00 22.3 17 Norte 32 Norte 0 -- -- 56
2020-07-06 13:00:00 21.3 20 Norte 37 Norte 0 -- -- 60
2020-07-06 12:00:00 21.3 17 Norte 30 Nordeste 0 -- -- 62
2020-07-06 11:00:00 20.1 14 Norte 29 Norte 0 -- -- 65
2020-07-06 10:00:00 18.8 18 Norte 28 Norte 0 -- -- 68
2020-07-06 09:00:00 18.7 12 Norte 34 Nordeste 0 -- -- 62
2020-07-06 08:00:00 19 7 Nordeste 17 Nordeste 0 -- -- 59
2020-07-06 07:00:00 14.2 5 Sudeste 9 Sudeste 0 -- -- 75
2020-07-06 06:00:00 14.3 4 Sur 10 Sudeste 0 -- -- 75
2020-07-06 05:00:00 15 3 Sur 9 Sudeste 0 -- -- 75
2020-07-06 04:00:00 14.8 6 Sudeste 11 Nordeste 0 -- -- 78
2020-07-06 03:00:00 15.8 3 Sudeste 10 Sudeste 0 -- -- 75
2020-07-06 02:00:00 17.1 0 Calma 8 Sudoeste 0 -- -- 71
2020-07-06 01:00:00 17.4 2 Noroeste 7 Este 0 -- -- 68
2020-07-06 00:00:00 18.4 2 Noroeste 11 Norte 0 -- -- 64
2020-07-05 23:00:00 19.2 3 Noroeste 14 Norte 0 -- -- 63
2020-07-05 22:00:00 21 7 Norte 23 Norte 0 -- -- 59
2020-07-05 21:00:00 24.1 14 Norte 31 Nordeste 0 -- -- 51
2020-07-05 20:00:00 27.2 15 Norte 26 Norte 0 -- -- 37
2020-07-05 19:00:00 28.3 15 Norte 26 Norte 0 -- -- 37
2020-07-05 18:00:00 29.2 14 Norte 23 Norte 0 -- -- 35
2020-07-05 17:00:00 29.2 12 Norte 22 Norte 0 -- -- 34
2020-07-05 16:00:00 29.2 9 Norte 19 Este 0 -- -- 31
2020-07-05 15:00:00 27.9 9 Norte 22 Norte 0 -- -- 34
2020-07-05 14:00:00 26.8 10 Norte 22 Norte 0 -- -- 36
2020-07-05 13:00:00 25.7 12 Norte 23 Nordeste 0 -- -- 38
2020-07-05 12:00:00 24.7 12 Norte 21 Nordeste 0 -- -- 40
2020-07-05 11:00:00 23.9 10 Norte 21 Norte 0 -- -- 42
2020-07-05 10:00:00 23 9 Norte 14 Nordeste 0 -- -- 46
2020-07-05 09:00:00 24.7 2 Norte 6 Noroeste 0 -- -- 43
2020-07-05 08:00:00 17.7 6 Sudeste 13 Sudeste 0 -- -- 68
2020-07-05 07:00:00 11.6 7 Sudeste 11 Sudeste 0 -- -- 84
2020-07-05 06:00:00 11.4 7 Sudeste 11 Sudeste 0 -- -- 83
2020-07-05 05:00:00 12.3 7 Sudeste 14 Sudeste 0 -- -- 76
2020-07-05 04:00:00 12.6 8 Sudeste 13 Sudeste 0 -- -- 73
2020-07-05 03:00:00 14 2 Sudeste 9 Sudeste 0 -- -- 67
2020-07-05 02:00:00 13.4 3 Sur 7 Sudeste 0 -- -- 72
2020-07-05 01:00:00 13.6 4 Sur 8 Sudeste 0 -- -- 74
2020-07-05 00:00:00 15.8 3 Nordeste 9 Nordeste 0 -- -- 64
2020-07-04 23:00:00 16.5 3 Sudeste 11 Nordeste 0 -- -- 56
2020-07-04 22:00:00 19 7 Norte 18 Nordeste 0 -- -- 47
2020-07-04 21:00:00 22.3 12 Norte 26 Norte 0 -- -- 33
2020-07-04 20:00:00 23.7 18 Norte 28 Norte 0 -- -- 30
2020-07-04 19:00:00 25 17 Norte 29 Nordeste 0 -- -- 25
2020-07-04 18:00:00 25.7 16 Norte 32 Norte 0 -- -- 24
2020-07-04 17:00:00 26 14 Norte 27 Nordeste 0 -- -- 24
2020-07-04 16:00:00 25.4 15 Norte 26 Noroeste 0 -- -- 25
2020-07-04 15:00:00 25.1 12 Norte 23 Norte 0 -- -- 27
2020-07-04 14:00:00 23.7 14 Norte 28 Norte 0 -- -- 26
2020-07-04 13:00:00 23.1 13 Norte 26 Noroeste 0 -- -- 30
2020-07-04 12:00:00 22.4 15 Noroeste 25 Norte 0 -- -- 24
2020-07-04 11:00:00 21.1 11 Norte 19 Norte 0 -- -- 27
2020-07-04 10:00:00 21.2 4 Noroeste 9 Norte 0 -- -- 24
2020-07-04 09:00:00 19.2 4 Sudeste 6 Este 0 -- -- 33
2020-07-04 08:00:00 13.9 0 Calma 8 Sudeste 0 -- -- 55
2020-07-04 07:00:00 5.7 5 Sur 9 Sudeste 0 -- -- 76
2020-07-04 06:00:00 5 5 Sudeste 10 Sudeste 0 -- -- 83
2020-07-04 05:00:00 5.3 8 Sudeste 11 Sudeste 0 -- -- 91
2020-07-04 04:00:00 5.7 4 Sudeste 10 Este 0 -- -- 87
2020-07-04 03:00:00 7.3 4 Sudeste 10 Sudeste 0 -- -- 86
2020-07-04 02:00:00 8.2 5 Sudeste 10 Sudeste 0 -- -- 90
2020-07-04 01:00:00 9.5 4 Sur 9 Norte 0 -- -- 86
2020-07-04 00:00:00 11.6 4 Noroeste 9 Nordeste 0 -- -- 77
2020-07-03 23:00:00 12.8 6 Norte 13 Norte 0 -- -- 72
2020-07-03 22:00:00 14.3 6 Norte 18 Norte 0 -- -- 68
2020-07-03 21:00:00 16.7 11 Norte 24 Norte 0 -- -- 60
2020-07-03 20:00:00 18.3 15 Norte 28 Norte 0 -- -- 55
2020-07-03 19:00:00 20.2 15 Norte 27 Norte 0 -- -- 49
2020-07-03 18:00:00 20.6 13 Norte 28 Norte 0 -- -- 49
2020-07-03 17:00:00 20.6 13 Norte 31 Norte 0 -- -- 47
2020-07-03 16:00:00 19.9 14 Norte 26 Norte 0 -- -- 47
2020-07-03 15:00:00 18.7 15 Norte 28 Norte 0 -- -- 50
2020-07-03 14:00:00 17.8 12 Norte 30 Norte 0 -- -- 54
2020-07-03 13:00:00 16.5 14 Norte 25 Norte 0 -- -- 60
2020-07-03 12:00:00 15.3 14 Norte 28 Nordeste 0 -- -- 61
2020-07-03 11:00:00 14.1 13 Norte 24 Norte 0 -- -- 65
2020-07-03 10:00:00 13.3 14 Norte 22 Norte 0 -- -- 72
2020-07-03 09:00:00 11.4 12 Norte 21 Norte 0 -- -- 82
2020-07-03 08:00:00 11.2 12 Norte 20 Norte 0 -- -- 83
2020-07-03 07:00:00 10.6 8 Norte 31 Norte 0 -- -- 87
2020-07-03 06:00:00 10.7 12 Norte 23 Norte 0 -- -- 84
2020-07-03 05:00:00 11 12 Norte 20 Norte 0 -- -- 87
2020-07-03 04:00:00 11 13 Norte 23 Norte 0 -- -- 88
2020-07-03 03:00:00 11 14 Norte 28 Norte 0 -- -- 90
2020-07-03 02:00:00 11.4 16 Norte 28 Norte 0 -- -- 86
2020-07-03 01:00:00 11.6 14 Norte 27 Norte 0 -- -- 85
2020-07-03 00:00:00 11.7 16 Norte 27 Nordeste 0 -- -- 87
2020-07-02 23:00:00 11.9 14 Norte 28 Norte 0 -- -- 86
2020-07-02 22:00:00 12.6 18 Norte 34 Norte 0 -- -- 85
2020-07-02 21:00:00 13.7 18 Norte 35 Norte 0 -- -- 80
2020-07-02 20:00:00 15.7 18 Norte 31 Norte 0 -- -- 76
2020-07-02 19:00:00 17 17 Norte 29 Norte 0 -- -- 74
2020-07-02 18:00:00 18.2 19 Norte 35 Norte 0 -- -- 70
2020-07-02 17:00:00 20.9 22 Norte 35 Norte 0 -- -- 62
2020-07-02 16:00:00 21.9 22 Norte 36 Norte 0 -- -- 60
2020-07-02 15:00:00 21.8 21 Norte 32 Norte 0 -- -- 62
2020-07-02 14:00:00 22.3 17 Norte 30 Norte 0 -- -- 61
2020-07-02 13:00:00 21.6 12 Norte 22 Norte 0 -- -- 64
2020-07-02 12:00:00 20.3 8 Norte 18 Norte 0 -- -- 67
2020-07-02 11:00:00 18.6 9 Norte 19 Norte 0 -- -- 72
2020-07-02 10:00:00 16.2 8 Norte 13 Norte 0 -- -- 85
2020-07-02 09:00:00 14.8 5 Nordeste 10 Nordeste 0 -- -- 94
2020-07-02 08:00:00 14.9 0 Calma 8 Este 0 -- -- 95
2020-07-02 07:00:00 14.3 4 Nordeste 6 Nordeste 0 -- -- 95
2020-07-02 06:00:00 14.7 3 Norte 8 Nordeste 0 -- -- 94
2020-07-02 05:00:00 15 4 Nordeste 8 Nordeste 0 -- -- 92
2020-07-02 04:00:00 15.3 3 Nordeste 5 Nordeste 0 -- -- 91
2020-07-02 03:00:00 15.6 3 Noroeste 6 Nordeste 0 -- -- 88
2020-07-02 02:00:00 15.7 2 Norte 9 Norte 0 -- -- 88
2020-07-02 01:00:00 15.8 3 Norte 6 Noroeste 0 -- -- 88
2020-07-02 00:00:00 15.2 3 Noroeste 9 Noroeste 0 -- -- 90
2020-07-01 23:00:00 16.3 7 Noroeste 10 Noroeste 0 -- -- 86
2020-07-01 22:00:00 17.5 3 Norte 21 Norte 0 -- -- 83
2020-07-01 21:00:00 20.1 11 Norte 18 Norte 0 -- -- 74
2020-07-01 20:00:00 21.6 13 Norte 28 Norte 0 -- -- 69
2020-07-01 19:00:00 22.7 11 Norte 29 Nordeste 0 -- -- 66
2020-07-01 18:00:00 24.3 9 Sudeste 24 Nordeste 0 -- -- 51
2020-07-01 17:00:00 26.1 13 Nordeste 33 Nordeste 0 -- -- 57
2020-07-01 16:00:00 27.5 18 Norte 36 Noroeste 0 -- -- 53
2020-07-01 15:00:00 29.4 9 Noroeste 34 Oeste 0 -- -- 39
2020-07-01 14:00:00 29.3 17 Oeste 37 Oeste 0 -- -- 35
2020-07-01 13:00:00 29 15 Sudoeste 31 Sudoeste 0 -- -- 41
2020-07-01 12:00:00 27.2 16 Sudoeste 34 Sudoeste 0 -- -- 45
2020-07-01 11:00:00 25.8 17 Sudoeste 33 Sudoeste 0 -- -- 49
2020-07-01 10:00:00 24.9 16 Sudoeste 30 Sur 0 -- -- 51
2020-07-01 09:00:00 23.4 16 Sur 31 Sudoeste 0 -- -- 62
2020-07-01 08:00:00 21.4 5 Noroeste 21 Este 0 -- -- 71
2020-07-01 07:00:00 15.3 4 Oeste 11 Sudeste 0 -- -- 91
2020-07-01 06:00:00 14.9 4 Sur 10 Sudeste 0 -- -- 91
2020-07-01 05:00:00 16 4 Sur 9 Sur 0 -- -- 90
2020-07-01 04:00:00 17.4 4 Este 22 Sudeste 0 -- -- 82
2020-07-01 03:00:00 19.4 16 Sudeste 24 Sur 0 -- -- 80
2020-07-01 02:00:00 16 3 Sur 10 Sudeste 0 -- -- 86
2020-07-01 01:00:00 16.3 3 Sudoeste 12 Este 0 -- -- 85
2020-07-01 00:00:00 18.2 4 Sur 10 Sudoeste 0 -- -- 76
2020-06-30 23:00:00 19.4 5 Oeste 15 Este 0 -- -- 70
2020-06-30 22:00:00 19.3 4 Norte 13 Sudeste 0 -- -- 74
2020-06-30 21:00:00 21.3 3 Noroeste 20 Noroeste 0 -- -- 68
2020-06-30 20:00:00 23.1 12 Noroeste 23 Noroeste 0 -- -- 56
2020-06-30 19:00:00 24.1 6 Noroeste 26 Norte 0 -- -- 54
2020-06-30 18:00:00 27.7 5 Noroeste 17 Norte 0 -- -- 51
2020-06-30 17:00:00 22.6 3 Noroeste 20 Noroeste 1.8 -- -- 64
2020-06-30 16:00:00 25.1 13 Norte 24 Norte 0 -- -- 52
2020-06-30 15:00:00 27.1 13 Norte 22 Norte 0 -- -- 47
2020-06-30 14:00:00 27.5 9 Noroeste 18 Norte 0 -- -- 49
2020-06-30 13:00:00 25.6 13 Norte 21 Norte 0 -- -- 51
2020-06-30 12:00:00 26 8 Norte 14 Norte 0 -- -- 44
2020-06-30 11:00:00 25.2 5 Norte 10 Noroeste 0 -- -- 39
2020-06-30 10:00:00 24.1 3 Noroeste 8 Noroeste 0 -- -- 32
2020-06-30 09:00:00 22.9 2 Nordeste 4 Oeste 0 -- -- 26
2020-06-30 08:00:00 18 3 Este 10 Sudeste 0 -- -- 53
2020-06-30 07:00:00 11.9 5 Sudeste 11 Sudeste 0 -- -- 64
2020-06-30 06:00:00 11.7 5 Sudeste 10 Sudeste 0 -- -- 70
2020-06-30 05:00:00 12.4 8 Sudeste 10 Sudeste 0 -- -- 68
2020-06-30 04:00:00 13.7 4 Sur 10 Sudeste 0 -- -- 61
2020-06-30 03:00:00 12.4 5 Sudeste 10 Sudeste 0 -- -- 72
2020-06-30 02:00:00 13.1 3 Sur 8 Sudeste 0 -- -- 81
2020-06-30 01:00:00 14.6 4 Sudeste 12 Sudeste 0 -- -- 79
2020-06-30 00:00:00 15.5 3 Este 9 Sudoeste 0 -- -- 87
2020-06-29 23:00:00 16.8 4 Sur 10 Norte 0 -- -- 83
2020-06-29 22:00:00 17.3 9 Norte 20 Norte 0 -- -- 80
2020-06-29 21:00:00 19.6 12 Norte 28 Norte 0 -- -- 73
2020-06-29 20:00:00 21.2 15 Norte 31 Norte 0 -- -- 67
2020-06-29 19:00:00 23.2 17 Norte 33 Norte 0 -- -- 60
2020-06-29 18:00:00 24 21 Norte 32 Norte 0 -- -- 59
2020-06-29 17:00:00 24.8 17 Norte 35 Norte 0 -- -- 58
2020-06-29 16:00:00 24.3 19 Norte 32 Norte 0 -- -- 60
2020-06-29 15:00:00 24.2 13 Norte 23 Norte 0 -- -- 62
2020-06-29 14:00:00 23.7 10 Norte 22 Norte 0 -- -- 63
2020-06-29 13:00:00 22.5 12 Norte 27 Norte 0 -- -- 66
2020-06-29 12:00:00 22.1 10 Norte 19 Noroeste 0 -- -- 66
2020-06-29 11:00:00 21.2 10 Norte 17 Norte 0 -- -- 69
2020-06-29 10:00:00 22 3 Noroeste 9 Noroeste 0 -- -- 64
2020-06-29 09:00:00 20 2 Este 12 Este 0 -- -- 70
2020-06-29 08:00:00 16.1 4 Nordeste 6 Nordeste 0 -- -- 86
2020-06-29 07:00:00 15.5 0 Calma 8 Norte 0 -- -- 88
2020-06-29 06:00:00 15.3 2 Norte 6 Norte 0 -- -- 88
2020-06-29 05:00:00 14.6 0 Calma 8 Nordeste 0 -- -- 91
2020-06-29 04:00:00 14 4 Sudeste 6 Sur 0 -- -- 91
2020-06-29 03:00:00 14.7 2 Sur 8 Este 0 -- -- 90
2020-06-29 02:00:00 15.4 2 Nordeste 6 Norte 0 -- -- 86
2020-06-29 01:00:00 16.4 4 Noroeste 8 Noroeste 0 -- -- 82
2020-06-29 00:00:00 16.9 3 Noroeste 14 Norte 0 -- -- 79
2020-06-28 23:00:00 18.8 7 Norte 15 Nordeste 0 -- -- 72
2020-06-28 22:00:00 20.4 9 Norte 26 Noroeste 0 -- -- 67
2020-06-28 21:00:00 23 17 Norte 30 Norte 0 -- -- 60
2020-06-28 20:00:00 25.2 16 Nordeste 26 Nordeste 0 -- -- 55
2020-06-28 19:00:00 25.9 11 Nordeste 30 Nordeste 0 -- -- 56
2020-06-28 18:00:00 26.7 7 Norte 17 Noroeste 0 -- -- 49
2020-06-28 17:00:00 25.6 11 Norte 25 Norte 0 -- -- 56
2020-06-28 16:00:00 26.9 12 Noroeste 22 Norte 0 -- -- 50
2020-06-28 15:00:00 27.8 6 Norte 21 Norte 0 -- -- 47
2020-06-28 14:00:00 25.9 10 Norte 26 Sudoeste 0 -- -- 53
2020-06-28 13:00:00 26.6 8 Noroeste 19 Oeste 0 -- -- 45
2020-06-28 12:00:00 26.2 7 Oeste 27 Oeste 0 -- -- 46
2020-06-28 11:00:00 25.6 8 Oeste 17 Oeste 0 -- -- 49
2020-06-28 10:00:00 24.8 5 Oeste 14 Oeste 0 -- -- 49
2020-06-28 09:00:00 20.4 6 Sudeste 12 Sudeste 0 -- -- 68
2020-06-28 08:00:00 18.6 5 Sudeste 9 Sudeste 0 -- -- 76
2020-06-28 07:00:00 14.5 4 Sudoeste 10 Sudeste 0 -- -- 86
2020-06-28 06:00:00 14.4 3 Sur 8 Sudeste 0 -- -- 87
2020-06-28 05:00:00 14.9 5 Sur 12 Sudeste 0 -- -- 86
2020-06-28 04:00:00 14.4 3 Sudeste 7 Sudeste 0 -- -- 90
2020-06-28 03:00:00 14.6 3 Sudeste 9 Sudeste 0 -- -- 90
2020-06-28 02:00:00 14.7 5 Sudeste 9 Sudeste 0 -- -- 92
2020-06-28 01:00:00 15 7 Sudeste 8 Sudeste 0 -- -- 90
2020-06-28 00:00:00 16 4 Sudeste 10 Sudeste 0 -- -- 86
2020-06-27 23:00:00 16.8 4 Sur 9 Sudoeste 0 -- -- 84
2020-06-27 22:00:00 20.6 5 Oeste 16 Noroeste 0 -- -- 68
2020-06-27 21:00:00 22.5 10 Norte 20 Norte 0 -- -- 59
2020-06-27 20:00:00 24 10 Norte 20 Norte 0 -- -- 57
2020-06-27 19:00:00 24.8 12 Norte 27 Nordeste 0 -- -- 55
2020-06-27 18:00:00 24.5 10 Nordeste 24 Norte 0 -- -- 52
2020-06-27 17:00:00 25.4 12 Norte 32 Oeste 0 -- -- 50
2020-06-27 16:00:00 27.5 14 Oeste 29 Oeste 0 -- -- 39
2020-06-27 15:00:00 26.1 11 Noroeste 26 Sudoeste 0 -- -- 40
2020-06-27 14:00:00 25.1 13 Oeste 25 Sudoeste 0 -- -- 41
2020-06-27 13:00:00 24.1 13 Sudoeste 28 Oeste 0 -- -- 46
2020-06-27 12:00:00 23.5 13 Sudoeste 26 Sudoeste 0 -- -- 52
2020-06-27 11:00:00 23.1 8 Oeste 23 Sudoeste 0 -- -- 51
2020-06-27 10:00:00 22 9 Oeste 19 Oeste 0 -- -- 50
2020-06-27 09:00:00 21.1 3 Sudoeste 18 Oeste 0 -- -- 50
2020-06-27 08:00:00 16.7 6 Sudeste 11 Sudeste 0 -- -- 69
2020-06-27 07:00:00 12.5 7 Sudeste 13 Sudeste 0 -- -- 79
2020-06-27 06:00:00 11.9 9 Sudeste 12 Sudeste 0 -- -- 82
2020-06-27 05:00:00 12.1 8 Sudeste 12 Sudeste 0 -- -- 81
2020-06-27 04:00:00 14.2 9 Este 19 Sudeste 0 -- -- 70
2020-06-27 03:00:00 14.8 13 Sudeste 18 Sudeste 0 -- -- 75
2020-06-27 02:00:00 13.9 2 Sudeste 9 Sur 0 -- -- 83
2020-06-27 01:00:00 15 0 Calma 8 Sudoeste 0 -- -- 78
2020-06-27 00:00:00 15.3 2 Sur 15 Este 0 -- -- 78
2020-06-26 23:00:00 18.4 8 Nordeste 28 Sudeste 0 -- -- 63
2020-06-26 22:00:00 19.6 19 Sudeste 30 Sur 0 -- -- 58
2020-06-26 21:00:00 20.8 22 Sudeste 38 Sudeste 0 -- -- 56
2020-06-26 20:00:00 23.5 24 Sudeste 41 Sur 0 -- -- 49
2020-06-26 19:00:00 27.3 13 Oeste 39 Sudoeste 0 -- -- 32
2020-06-26 18:00:00 28 17 Sudoeste 38 Sur 0 -- -- 34
2020-06-26 17:00:00 27.7 18 Sudoeste 41 Sudoeste 0 -- -- 38
2020-06-26 16:00:00 28 19 Oeste 42 Oeste 0 -- -- 35
2020-06-26 15:00:00 22.8 8 Este 30 Sur 0.2 -- -- 64
2020-06-26 14:00:00 27.4 5 Sur 27 Sur 0 -- -- 43
2020-06-26 13:00:00 25.4 12 Sur 29 Sur 0 -- -- 47
2020-06-26 12:00:00 23.3 9 Sur 26 Sudeste 0 -- -- 52
2020-06-26 11:00:00 23.8 12 Sudeste 25 Este 0 -- -- 48
2020-06-26 10:00:00 23.4 5 Sudeste 19 Este 0 -- -- 47
2020-06-26 09:00:00 20.9 9 Sudeste 18 Sudeste 0 -- -- 56
2020-06-26 08:00:00 18.9 13 Sudeste 20 Sudeste 0 -- -- 58
2020-06-26 07:00:00 15.5 15 Sudeste 24 Sudeste 0 -- -- 69
2020-06-26 06:00:00 15.9 12 Sudeste 20 Sudeste 0 -- -- 71
2020-06-26 05:00:00 15.6 7 Nordeste 30 Este 0 -- -- 78
2020-06-26 04:00:00 17.1 20 Sudeste 43 Sudeste 0 -- -- 68
2020-06-26 03:00:00 17.3 24 Sudeste 46 Sudeste 0 -- -- 68
2020-06-26 02:00:00 17.1 27 Sudeste 45 Sudeste 0 -- -- 74
2020-06-26 01:00:00 17.2 23 Sudeste 40 Sudeste 0 -- -- 75
2020-06-26 00:00:00 17.1 17 Sudeste 32 Este 0 -- -- 78
2020-06-25 23:00:00 14.9 5 Sudeste 13 Sur 0 -- -- 91
2020-06-25 22:00:00 14.9 5 Sudeste 17 Este 2.6 -- -- 92
2020-06-25 21:00:00 16.1 12 Sudoeste 25 Sudoeste 4 -- -- 89
2020-06-25 20:00:00 16.5 6 Sudeste 20 Sudeste 0.4 -- -- 87
2020-06-25 19:00:00 16.6 9 Sur 27 Noroeste 0 -- -- 81
2020-06-25 18:00:00 18.8 15 Noroeste 39 Sudeste 1.6 -- -- 70
2020-06-25 17:00:00 18.1 21 Este 37 Sudeste 7.6 -- -- 83
2020-06-25 16:00:00 22.9 15 Nordeste 35 Nordeste 0.2 -- -- 62
2020-06-25 15:00:00 25 23 Norte 37 Nordeste 0 -- -- 56
2020-06-25 14:00:00 30 3 Sudoeste 25 Sudoeste 0 -- -- 34
2020-06-25 13:00:00 29.2 14 Sudeste 25 Sudeste 0 -- -- 34
2020-06-25 12:00:00 28.1 11 Sur 27 Sur 0 -- -- 37
2020-06-25 11:00:00 28 10 Sur 21 Sudoeste 0 -- -- 36
2020-06-25 10:00:00 26.9 9 Sudeste 18 Este 0 -- -- 40
2020-06-25 09:00:00 23.2 14 Sudeste 24 Este 0 -- -- 49
2020-06-25 08:00:00 21 17 Este 22 Este 0 -- -- 51
2020-06-25 07:00:00 15.3 5 Sudoeste 10 Sudeste 0 -- -- 66
2020-06-25 06:00:00 14.8 6 Sur 20 Sudeste 0 -- -- 69
2020-06-25 05:00:00 17.2 15 Sudeste 22 Sudeste 0 -- -- 60
2020-06-25 04:00:00 17 4 Sudoeste 15 Sudeste 0 -- -- 62
2020-06-25 03:00:00 17.8 11 Sudeste 23 Este 0 -- -- 63
2020-06-25 02:00:00 18.8 10 Sudeste 30 Este 0 -- -- 61
2020-06-25 01:00:00 18.7 19 Sudeste 39 Sudeste 0 -- -- 63
2020-06-25 00:00:00 19.5 15 Sudeste 33 Sudeste 0 -- -- 58
2020-06-24 23:00:00 21.7 20 Sudeste 31 Sudeste 0 -- -- 49
2020-06-24 22:00:00 22.4 13 Sur 20 Sur 0 -- -- 48
2020-06-24 21:00:00 24 10 Sudeste 28 Sudeste 0 -- -- 47
2020-06-24 20:00:00 26.5 14 Sudeste 28 Sur 0 -- -- 38
2020-06-24 19:00:00 28.2 11 Sudeste 24 Sudeste 0 -- -- 35
2020-06-24 18:00:00 28.1 13 Sudeste 22 Sudeste 0 -- -- 35
2020-06-24 17:00:00 26.1 18 Sur 44 Sudoeste 0 -- -- 36
2020-06-24 16:00:00 24.5 17 Sur 50 Sudoeste 0 -- -- 46
2020-06-24 15:00:00 26.8 17 Sudoeste 33 Sudoeste 0 -- -- 36
2020-06-24 14:00:00 26.3 9 Oeste 37 Oeste 0 -- -- 45
2020-06-24 13:00:00 25.5 21 Sudoeste 34 Sudoeste 0 -- -- 41
2020-06-24 12:00:00 29.8 10 Oeste 26 Oeste 0 -- -- 39
2020-06-24 11:00:00 25.4 7 Oeste 22 Este 0 -- -- 51
2020-06-24 10:00:00 28.7 7 Sudeste 12 Este 0 -- -- 42
2020-06-24 09:00:00 26.4 3 Sudeste 18 Este 0 -- -- 49
2020-06-24 08:00:00 20.8 6 Norte 21 Sudeste 0 -- -- 61
2020-06-24 07:00:00 16.5 4 Este 25 Sudeste 0 -- -- 74
2020-06-24 06:00:00 16.2 9 Sudeste 20 Sudeste 0.2 -- -- 80
2020-06-24 05:00:00 22.7 16 Este 30 Este 0 -- -- 35
2020-06-24 04:00:00 21 8 Sudeste 22 Sudeste 0 -- -- 41
2020-06-24 03:00:00 21.6 14 Sur 31 Sudoeste 0 -- -- 41
2020-06-24 02:00:00 23.5 13 Sur 29 Sudoeste 0 -- -- 34
2020-06-24 01:00:00 21.8 13 Sudoeste 28 Sur 0 -- -- 45
2020-06-24 00:00:00 20.7 4 Sur 25 Oeste 0 -- -- 63
2020-06-23 23:00:00 19.5 12 Sudeste 18 Sudeste 0 -- -- 62
2020-06-23 22:00:00 21.7 9 Sudeste 14 Sudeste 0 -- -- 59
2020-06-23 21:00:00 23.6 6 Sur 17 Sur 0 -- -- 66
2020-06-23 20:00:00 21.7 8 Sur 17 Sudoeste 0.4 -- -- 76
2020-06-23 19:00:00 25.2 4 Norte 25 Norte 0.2 -- -- 50
2020-06-23 18:00:00 29.5 16 Norte 23 Norte 0 -- -- 38
2020-06-23 17:00:00 30.4 11 Norte 24 Norte 0 -- -- 37
2020-06-23 16:00:00 30.2 12 Norte 25 Norte 0 -- -- 36
2020-06-23 15:00:00 30.1 10 Norte 26 Noroeste 0 -- -- 38
2020-06-23 14:00:00 30.3 10 Sudoeste 23 Oeste 0 -- -- 36
2020-06-23 13:00:00 28.8 8 Sur 18 Sudoeste 0 -- -- 37
2020-06-23 12:00:00 28.3 4 Sudeste 13 Norte 0 -- -- 38
2020-06-23 11:00:00 25.7 7 Norte 13 Noroeste 0 -- -- 40
2020-06-23 10:00:00 24.5 8 Noroeste 11 Noroeste 0 -- -- 41
2020-06-23 09:00:00 22 4 Norte 6 Norte 0 -- -- 51
2020-06-23 08:00:00 19.2 3 Norte 6 Sudeste 0 -- -- 52
2020-06-23 07:00:00 12.9 2 Sur 9 Sudeste 0 -- -- 70
2020-06-23 06:00:00 13 5 Sudeste 16 Sudeste 0 -- -- 66
2020-06-23 05:00:00 12.5 10 Sudeste 16 Sudeste 0 -- -- 64
2020-06-23 04:00:00 12 8 Sudeste 12 Sudeste 0 -- -- 68
2020-06-23 03:00:00 12 4 Sudeste 10 Sudeste 0 -- -- 70
2020-06-23 02:00:00 13.7 8 Sudeste 14 Sudeste 0 -- -- 74
2020-06-23 01:00:00 14.2 12 Sudeste 14 Sudeste 0 -- -- 76
2020-06-23 00:00:00 14.2 5 Sur 8 Sudeste 0 -- -- 77
2020-06-22 23:00:00 14.6 3 Sur 6 Sur 0 -- -- 76
2020-06-22 22:00:00 18.1 0 Calma 11 Norte 0 -- -- 62
2020-06-22 21:00:00 23.2 8 Norte 18 Norte 0 -- -- 43
2020-06-22 20:00:00 24.9 12 Norte 21 Norte 0 -- -- 37
2020-06-22 19:00:00 26.4 11 Norte 21 Noroeste 0 -- -- 33
2020-06-22 18:00:00 27.1 11 Norte 22 Nordeste 0 -- -- 31
2020-06-22 17:00:00 26.9 11 Norte 27 Norte 0 -- -- 31
2020-06-22 16:00:00 26.1 11 Norte 21 Norte 0 -- -- 33
2020-06-22 15:00:00 25.5 12 Norte 22 Nordeste 0 -- -- 35
2020-06-22 14:00:00 24.3 11 Norte 19 Norte 0 -- -- 36
2020-06-22 13:00:00 23.6 11 Noroeste 20 Noroeste 0 -- -- 34
2020-06-22 12:00:00 22.2 8 Norte 17 Norte 0 -- -- 36
2020-06-22 11:00:00 21.1 6 Norte 19 Nordeste 0 -- -- 47
2020-06-22 10:00:00 19 8 Nordeste 14 Nordeste 0 -- -- 59
2020-06-22 09:00:00 18.6 5 Norte 10 Norte 0 -- -- 63
2020-06-22 08:00:00 17.9 3 Oeste 7 Oeste 0 -- -- 68
2020-06-22 07:00:00 12.8 2 Sudoeste 8 Este 0 -- -- 87
2020-06-22 06:00:00 11.7 2 Sudeste 7 Sur 0 -- -- 88
2020-06-22 05:00:00 11.7 3 Sur 7 Norte 0 -- -- 88
2020-06-22 04:00:00 12.5 3 Noroeste 13 Norte 0 -- -- 85
2020-06-22 03:00:00 12.8 6 Norte 16 Norte 0 -- -- 82
2020-06-22 02:00:00 12.9 4 Noroeste 12 Norte 0 -- -- 80
2020-06-22 01:00:00 14 6 Norte 12 Norte 0 -- -- 74
2020-06-22 00:00:00 14.8 6 Norte 17 Nordeste 0 -- -- 71
2020-06-21 23:00:00 15.5 10 Norte 21 Norte 0 -- -- 68
2020-06-21 22:00:00 16.8 8 Norte 27 Norte 0 -- -- 63
2020-06-21 21:00:00 19.2 18 Norte 35 Norte 0 -- -- 55
2020-06-21 20:00:00 21.8 19 Norte 36 Nordeste 0 -- -- 49
2020-06-21 19:00:00 23.7 21 Norte 32 Norte 0 -- -- 44
2020-06-21 18:00:00 25.3 17 Norte 36 Norte 0 -- -- 40
2020-06-21 17:00:00 25.6 19 Norte 30 Norte 0 -- -- 40
2020-06-21 16:00:00 25.5 17 Norte 26 Norte 0 -- -- 42
2020-06-21 15:00:00 25.6 10 Norte 26 Norte 0 -- -- 38
2020-06-21 14:00:00 24.7 12 Norte 23 Norte 0 -- -- 38
2020-06-21 13:00:00 23.1 9 Norte 21 Norte 0 -- -- 44
2020-06-21 12:00:00 23.2 7 Nordeste 17 Norte 0 -- -- 43
2020-06-21 11:00:00 22.7 5 Norte 13 Norte 0 -- -- 50
2020-06-21 10:00:00 22.9 3 Noroeste 8 Norte 0 -- -- 52
2020-06-21 09:00:00 20.9 2 Norte 7 Norte 0 -- -- 57
2020-06-21 08:00:00 15.4 5 Norte 10 Sudeste 0 -- -- 72
2020-06-21 07:00:00 11.2 6 Sudeste 10 Sudeste 0 -- -- 90
2020-06-21 06:00:00 10.4 4 Sudeste 9 Sudeste 0 -- -- 90
2020-06-21 05:00:00 11 5 Sudeste 8 Sudeste 0 -- -- 89
2020-06-21 04:00:00 10.9 5 Sudeste 12 Sudeste 0 -- -- 89
2020-06-21 03:00:00 11 4 Sudeste 8 Este 0 -- -- 88
2020-06-21 02:00:00 12.3 2 Sudoeste 8 Sudeste 0 -- -- 89
2020-06-21 01:00:00 14.9 5 Sudoeste 9 Oeste 0 -- -- 81
2020-06-21 00:00:00 16 5 Sudoeste 12 Sudoeste 0 -- -- 80
2020-06-20 23:00:00 17.5 4 Oeste 10 Sudoeste 0 -- -- 74
2020-06-20 22:00:00 18.8 4 Sudoeste 12 Noroeste 0 -- -- 65
2020-06-20 21:00:00 21.9 9 Noroeste 24 Nordeste 0 -- -- 54
2020-06-20 20:00:00 23.5 15 Norte 26 Nordeste 0 -- -- 54
2020-06-20 19:00:00 25 16 Norte 32 Norte 0 -- -- 47
2020-06-20 18:00:00 26.2 12 Norte 29 Nordeste 0 -- -- 45
2020-06-20 17:00:00 27.9 15 Oeste 30 Sudoeste 0 -- -- 29
2020-06-20 16:00:00 27 15 Oeste 32 Sudoeste 0 -- -- 29
2020-06-20 15:00:00 26.4 19 Oeste 34 Oeste 0 -- -- 32
2020-06-20 14:00:00 24.8 8 Sudeste 28 Sudoeste 0 -- -- 39
2020-06-20 13:00:00 24.2 8 Sur 26 Sur 0 -- -- 47
2020-06-20 12:00:00 23.6 10 Oeste 24 Sudoeste 0 -- -- 46
2020-06-20 11:00:00 23 11 Sudoeste 20 Sudoeste 0 -- -- 52
2020-06-20 10:00:00 22.7 2 Noroeste 7 Norte 0 -- -- 50
2020-06-20 09:00:00 20.2 2 Sudeste 4 Este 0 -- -- 54
2020-06-20 08:00:00 16.8 0 Calma 6 Sudeste 0 -- -- 73
2020-06-20 07:00:00 9.8 2 Sur 6 Sudeste 0 -- -- 91
2020-06-20 06:00:00 9.4 6 Sudeste 8 Sudeste 0 -- -- 93
2020-06-20 05:00:00 9.5 5 Sudeste 8 Sudeste 0 -- -- 92
2020-06-20 04:00:00 9.7 2 Sur 9 Sudeste 0 -- -- 92
2020-06-20 03:00:00 10.6 6 Sudeste 8 Sudoeste 0 -- -- 92
2020-06-20 02:00:00 13.3 2 Oeste 10 Noroeste 0 -- -- 86
2020-06-20 01:00:00 14.4 6 Noroeste 11 Noroeste 0 -- -- 84
2020-06-20 00:00:00 14.7 4 Oeste 8 Sudoeste 0 -- -- 82
2020-06-19 23:00:00 16.2 5 Noroeste 10 Norte 0 -- -- 76
2020-06-19 22:00:00 18 5 Oeste 19 Norte 0 -- -- 64
2020-06-19 21:00:00 20.4 13 Norte 20 Nordeste 0 -- -- 60
2020-06-19 20:00:00 22.1 14 Norte 22 Nordeste 0 -- -- 53
2020-06-19 19:00:00 22.9 14 Norte 23 Nordeste 0 -- -- 49
2020-06-19 18:00:00 23.2 15 Norte 36 Noroeste 0 -- -- 49
2020-06-19 17:00:00 26 17 Oeste 59 Oeste 0 -- -- 39
2020-06-19 16:00:00 25.2 16 Oeste 32 Oeste 0 -- -- 34
2020-06-19 15:00:00 24.5 14 Sudoeste 30 Sudoeste 0 -- -- 37
2020-06-19 14:00:00 23.3 12 Oeste 23 Oeste 0 -- -- 42
2020-06-19 13:00:00 22.3 9 Sur 23 Sudoeste 0 -- -- 52
2020-06-19 12:00:00 20.6 9 Sudoeste 19 Sudoeste 0 -- -- 58
2020-06-19 11:00:00 18.9 6 Sudeste 12 Sudeste 0 -- -- 64
2020-06-19 10:00:00 17.4 7 Norte 12 Noroeste 0 -- -- 63
2020-06-19 09:00:00 15.2 0 Calma 3 Sudeste 0 -- -- 69
2020-06-19 08:00:00 11.7 0 Calma 6 Sudeste 0 -- -- 90
2020-06-19 07:00:00 9.5 4 Sudeste 5 Sudeste 0 -- -- 94
2020-06-19 06:00:00 8.4 3 Sur 8 Sudeste 0 -- -- 95
2020-06-19 05:00:00 7.1 4 Sudeste 7 Sudeste 0 -- -- 95
2020-06-19 04:00:00 7.5 2 Sur 8 Sudeste 0 -- -- 93
2020-06-19 03:00:00 7.9 5 Sudeste 7 Sudeste 0 -- -- 91
2020-06-19 02:00:00 10.7 4 Oeste 12 Noroeste 0 -- -- 83
2020-06-19 01:00:00 11.7 5 Noroeste 10 Oeste 0 -- -- 81
2020-06-19 00:00:00 12.9 6 Oeste 13 Noroeste 0 -- -- 77
2020-06-18 23:00:00 13.2 7 Noroeste 17 Noroeste 0 -- -- 74
2020-06-18 22:00:00 13.3 8 Noroeste 18 Norte 0 -- -- 73
2020-06-18 21:00:00 15.6 11 Norte 24 Norte 0 -- -- 64
2020-06-18 20:00:00 16.8 14 Norte 28 Norte 0 -- -- 61
2020-06-18 19:00:00 17.7 17 Norte 29 Nordeste 0 -- -- 59
2020-06-18 18:00:00 18 18 Nordeste 29 Nordeste 0 -- -- 60
2020-06-18 17:00:00 17.6 18 Norte 28 Nordeste 0 -- -- 59
2020-06-18 16:00:00 17.1 17 Norte 34 Norte 0 -- -- 62
2020-06-18 15:00:00 19.5 14 Norte 27 Nordeste 0 -- -- 57
2020-06-18 14:00:00 18 9 Norte 19 Norte 0 -- -- 57
2020-06-18 13:00:00 16.2 6 Noroeste 21 Norte 0 -- -- 64
2020-06-18 12:00:00 14.9 9 Norte 18 Norte 0 -- -- 66
2020-06-18 11:00:00 12.3 9 Norte 17 Norte 0 -- -- 76
2020-06-18 10:00:00 11.6 9 Norte 13 Noroeste 0 -- -- 77
2020-06-18 09:00:00 10.7 4 Norte 9 Noroeste 0 -- -- 79
2020-06-18 08:00:00 9.2 0 Calma 5 Sudeste 0 -- -- 88
2020-06-18 07:00:00 7.4 0 Calma 7 Sudeste 0 -- -- 94
2020-06-18 06:00:00 6.2 3 Sudeste 10 Sudeste 0 -- -- 95
2020-06-18 05:00:00 6.5 3 Sudoeste 8 Sudoeste 0 -- -- 93
2020-06-18 04:00:00 8.2 3 Sur 8 Oeste 0 -- -- 94
2020-06-18 03:00:00 8.7 4 Oeste 6 Sudoeste 0 -- -- 93
2020-06-18 02:00:00 9.3 3 Este 9 Oeste 0 -- -- 90
2020-06-18 01:00:00 9.4 6 Oeste 12 Oeste 0 -- -- 88
2020-06-18 00:00:00 10.1 6 Noroeste 17 Norte 0 -- -- 84
2020-06-17 23:00:00 11.1 10 Norte 21 Norte 0 -- -- 80
2020-06-17 22:00:00 11.3 4 Noroeste 24 Norte 0 -- -- 81
2020-06-17 21:00:00 14.1 10 Norte 19 Norte 0 -- -- 67
2020-06-17 20:00:00 15 12 Norte 19 Norte 0 -- -- 63
2020-06-17 19:00:00 15.1 10 Norte 24 Norte 0 -- -- 65
2020-06-17 18:00:00 16.8 12 Norte 21 Norte 0 -- -- 59
2020-06-17 17:00:00 16.4 8 Norte 22 Nordeste 0 -- -- 58
2020-06-17 16:00:00 16.4 9 Norte 22 Norte 0 -- -- 60
2020-06-17 15:00:00 16.3 8 Noroeste 21 Noroeste 0 -- -- 61
2020-06-17 14:00:00 15.6 8 Noroeste 17 Norte 0 -- -- 62
2020-06-17 13:00:00 13.7 10 Norte 16 Norte 0 -- -- 72
2020-06-17 12:00:00 12.5 7 Noroeste 15 Nordeste 0 -- -- 77
2020-06-17 11:00:00 9.9 7 Norte 13 Noroeste 0.2 -- -- 89
2020-06-17 10:00:00 9.8 5 Norte 8 Norte 0.2 -- -- 86
2020-06-17 09:00:00 9 3 Noroeste 10 Noroeste 0.6 -- -- 92
2020-06-17 08:00:00 9.2 3 Norte 6 Nordeste 0 -- -- 86
2020-06-17 07:00:00 8.8 0 Calma 10 Nordeste 0 -- -- 89
2020-06-17 06:00:00 8.9 2 Este 9 Nordeste 0 -- -- 88
2020-06-17 05:00:00 8.9 2 Noroeste 9 Norte 0 -- -- 89
2020-06-17 04:00:00 8.9 4 Nordeste 16 Nordeste 0 -- -- 90
2020-06-17 03:00:00 9 7 Nordeste 14 Norte 0 -- -- 92
2020-06-17 02:00:00 9.1 6 Norte 15 Norte 0 -- -- 94
2020-06-17 01:00:00 9.3 8 Norte 21 Norte 0 -- -- 95
2020-06-17 00:00:00 10.1 2 Norte 6 Nordeste 0 -- -- 92
2020-06-16 23:00:00 10 0 Calma 10 Oeste 2.4 -- -- 92
2020-06-16 22:00:00 10.8 3 Noroeste 9 Noroeste 0 -- -- 87
2020-06-16 21:00:00 11.3 2 Noroeste 13 Norte 0 -- -- 84
2020-06-16 20:00:00 11 11 Norte 22 Noroeste 0 -- -- 89
2020-06-16 19:00:00 12.3 9 Norte 33 Norte 0 -- -- 80
2020-06-16 18:00:00 15.2 24 Nordeste 35 Noroeste 0 -- -- 72
2020-06-16 17:00:00 19.6 18 Oeste 45 Sudoeste 0 -- -- 43
2020-06-16 16:00:00 19.7 17 Oeste 41 Oeste 0 -- -- 41
2020-06-16 15:00:00 18.3 13 Oeste 31 Oeste 0 -- -- 55
2020-06-16 14:00:00 18.7 7 Oeste 32 Sudoeste 0 -- -- 52
2020-06-16 13:00:00 18.9 15 Sudoeste 31 Sudoeste 0 -- -- 49
2020-06-16 12:00:00 17.4 13 Sudoeste 26 Sudoeste 0 -- -- 61
2020-06-16 11:00:00 16.6 11 Oeste 22 Sudoeste 0 -- -- 62
2020-06-16 10:00:00 13.9 6 Norte 14 Oeste 0 -- -- 74
2020-06-16 09:00:00 12.2 4 Noroeste 16 Sudoeste 0 -- -- 77
2020-06-16 08:00:00 12.3 5 Sudoeste 15 Sur 0 -- -- 80
2020-06-16 07:00:00 11.6 8 Sudoeste 24 Sudoeste 0 -- -- 84
2020-06-16 06:00:00 11.9 10 Sudoeste 16 Sudoeste 0 -- -- 85
2020-06-16 05:00:00 12.1 4 Noroeste 13 Sudoeste 0 -- -- 85
2020-06-16 04:00:00 11.7 3 Sur 9 Sudeste 0 -- -- 88
2020-06-16 03:00:00 11.4 4 Nordeste 8 Sudeste 0 -- -- 89
2020-06-16 02:00:00 12 3 Noroeste 8 Noroeste 0 -- -- 82
2020-06-16 01:00:00 12.5 3 Noroeste 7 Noroeste 0 -- -- 80
2020-06-16 00:00:00 13 0 Calma 12 Noroeste 0 -- -- 78
2020-06-15 23:00:00 13.6 6 Noroeste 12 Norte 0 -- -- 76
2020-06-15 22:00:00 14.5 5 Norte 12 Norte 0 -- -- 72
2020-06-15 21:00:00 16.1 8 Norte 12 Norte 0 -- -- 64
2020-06-15 20:00:00 16.7 9 Norte 21 Noroeste 0 -- -- 64
2020-06-15 19:00:00 17.4 12 Norte 24 Norte 0 -- -- 64
2020-06-15 18:00:00 19.3 12 Norte 22 Norte 0 -- -- 57
2020-06-15 17:00:00 19 10 Norte 26 Nordeste 0 -- -- 54
2020-06-15 16:00:00 22 15 Oeste 28 Oeste 0 -- -- 43
2020-06-15 15:00:00 20.5 14 Oeste 27 Sudoeste 0 -- -- 48
2020-06-15 14:00:00 20 11 Sudoeste 29 Sudoeste 0 -- -- 52
2020-06-15 13:00:00 20.8 10 Oeste 18 Oeste 0 -- -- 50
2020-06-15 12:00:00 18.6 9 Oeste 23 Oeste 0 -- -- 54
2020-06-15 11:00:00 18.5 8 Oeste 22 Sudoeste 0 -- -- 53
2020-06-15 10:00:00 17.2 9 Sudoeste 16 Sudoeste 0 -- -- 55
2020-06-15 09:00:00 14.6 5 Sudoeste 11 Sudeste 0 -- -- 63
2020-06-15 08:00:00 12.5 4 Sudeste 7 Sudeste 0 -- -- 74
2020-06-15 07:00:00 8.5 3 Sudeste 6 Sudeste 0 -- -- 87
2020-06-15 06:00:00 8.4 0 Calma 15 Sudeste 0 -- -- 85
2020-06-15 05:00:00 10 13 Sudeste 18 Sudeste 0 -- -- 78
2020-06-15 04:00:00 9.8 9 Sudeste 17 Sudeste 0 -- -- 80
2020-06-15 03:00:00 9.8 6 Sur 15 Sudeste 0 -- -- 83
2020-06-15 02:00:00 9.3 4 Sur 8 Sudeste 0 -- -- 86
2020-06-15 01:00:00 10.6 4 Sudoeste 9 Sudoeste 0 -- -- 84
2020-06-15 00:00:00 12.3 5 Oeste 9 Noroeste 0 -- -- 78
2020-06-14 23:00:00 13.3 5 Norte 13 Norte 0 -- -- 70
2020-06-14 22:00:00 14.7 9 Noroeste 15 Noroeste 0 -- -- 65
2020-06-14 21:00:00 15.4 6 Noroeste 21 Nordeste 0 -- -- 63
2020-06-14 20:00:00 16.4 10 Norte 26 Oeste 0 -- -- 60
2020-06-14 19:00:00 19.4 9 Noroeste 20 Oeste 0 -- -- 43
2020-06-14 18:00:00 19 8 Noroeste 22 Sudoeste 0 -- -- 46
2020-06-14 17:00:00 19.8 9 Oeste 27 Noroeste 0 -- -- 44
2020-06-14 16:00:00 19.2 10 Sudoeste 28 Sudoeste 0 -- -- 47
2020-06-14 15:00:00 19.6 16 Sudoeste 31 Sudoeste 0 -- -- 45
2020-06-14 14:00:00 19.2 13 Sudoeste 30 Sudoeste 0 -- -- 47
2020-06-14 13:00:00 18.9 13 Sudoeste 28 Sur 0 -- -- 46
2020-06-14 12:00:00 18.1 10 Sudoeste 21 Sudoeste 0 -- -- 50
2020-06-14 11:00:00 17.5 8 Oeste 17 Sudoeste 0 -- -- 50
2020-06-14 10:00:00 16.6 8 Oeste 13 Oeste 0 -- -- 52
2020-06-14 09:00:00 14.6 5 Oeste 11 Sudoeste 0 -- -- 58
2020-06-14 08:00:00 11.7 7 Sudeste 14 Sudeste 0 -- -- 74
2020-06-14 07:00:00 9.6 7 Sudeste 9 Sudeste 0 -- -- 84
2020-06-14 06:00:00 10.9 0 Calma 10 Sudeste 0 -- -- 73
2020-06-14 05:00:00 10.9 7 Sudeste 13 Sudeste 0 -- -- 77
2020-06-14 04:00:00 11 9 Sudeste 12 Sudeste 0 -- -- 74
2020-06-14 03:00:00 10.9 7 Sudeste 12 Sudeste 0 -- -- 75
2020-06-14 02:00:00 10.4 0 Calma 10 Sudeste 0 -- -- 75
2020-06-14 01:00:00 9.4 4 Sudeste 10 Sudeste 0 -- -- 78
2020-06-14 00:00:00 9.3 5 Sudeste 10 Sudeste 0 -- -- 80
2020-06-13 23:00:00 9.2 9 Sudeste 12 Sudeste 0 -- -- 77
2020-06-13 22:00:00 11 6 Sudoeste 16 Sudoeste 0 -- -- 70
2020-06-13 21:00:00 15.7 8 Oeste 26 Noroeste 0 -- -- 46
2020-06-13 20:00:00 17.6 12 Oeste 32 Oeste 0 -- -- 44
2020-06-13 19:00:00 18.5 15 Oeste 35 Sudoeste 0 -- -- 42
2020-06-13 18:00:00 18 17 Oeste 40 Oeste 0 -- -- 44
2020-06-13 17:00:00 17.7 17 Oeste 37 Oeste 0 -- -- 44
2020-06-13 16:00:00 17 14 Oeste 35 Oeste 0 -- -- 47
2020-06-13 15:00:00 15.5 18 Sudoeste 36 Sudoeste 0 -- -- 55
2020-06-13 14:00:00 15.6 19 Oeste 37 Oeste 0 -- -- 54
2020-06-13 13:00:00 13.2 20 Oeste 41 Oeste 0 -- -- 60
2020-06-13 12:00:00 13.4 24 Sudoeste 43 Sudoeste 0 -- -- 61
2020-06-13 11:00:00 13.1 19 Oeste 43 Oeste 0 -- -- 65
2020-06-13 10:00:00 10.1 11 Oeste 32 Sudoeste 0 -- -- 79
2020-06-13 09:00:00 9.6 10 Sudoeste 31 Oeste 0 -- -- 83
2020-06-13 08:00:00 9.2 9 Sudoeste 20 Oeste 0 -- -- 84
2020-06-13 07:00:00 8.9 5 Sur 24 Sur 0 -- -- 86
2020-06-13 06:00:00 8.9 15 Sudoeste 27 Sudoeste 0 -- -- 86
2020-06-13 05:00:00 8.8 9 Sur 34 Sudoeste 0 -- -- 89
2020-06-13 04:00:00 8.7 13 Sur 25 Sudoeste 0 -- -- 87
2020-06-13 03:00:00 8.8 8 Sur 23 Sudoeste 0 -- -- 86
2020-06-13 02:00:00 8.8 10 Sudoeste 29 Sur 0 -- -- 86
2020-06-13 01:00:00 8.6 12 Sur 24 Sur 0 -- -- 87
2020-06-13 00:00:00 8.2 11 Sur 18 Sur 0 -- -- 87
2020-06-12 23:00:00 8.4 11 Sudoeste 22 Sudoeste 0.2 -- -- 87
2020-06-12 22:00:00 7.8 12 Sur 34 Sudoeste 2.4 -- -- 92
2020-06-12 21:00:00 9.2 21 Sudoeste 40 Sudoeste 1.2 -- -- 81
2020-06-12 20:00:00 10.1 10 Sur 42 Sudoeste 4 -- -- 85
2020-06-12 19:00:00 14 12 Sur 29 Sudoeste 0.2 -- -- 72
2020-06-12 18:00:00 14.9 14 Sudoeste 33 Sudoeste 0 -- -- 64
2020-06-12 17:00:00 11.4 17 Sur 41 Sudoeste 0.2 -- -- 77
2020-06-12 16:00:00 12.3 15 Sudoeste 49 Sur 0.2 -- -- 75
2020-06-12 15:00:00 14 30 Sur 52 Sudoeste 0 -- -- 55
2020-06-12 14:00:00 11.6 23 Sur 43 Sudoeste 0.2 -- -- 78
2020-06-12 13:00:00 11.1 23 Sur 53 Sudoeste 0 -- -- 70
2020-06-12 12:00:00 12 25 Sudoeste 48 Sudoeste 0 -- -- 64
2020-06-12 11:00:00 10.2 20 Sudoeste 44 Sudoeste 0 -- -- 69
2020-06-12 10:00:00 8.6 21 Sudoeste 37 Oeste 0 -- -- 73
2020-06-12 09:00:00 7.8 18 Sudoeste 32 Sudoeste 0 -- -- 73
2020-06-12 08:00:00 7.3 13 Sudoeste 26 Sur 0 -- -- 74
2020-06-12 07:00:00 7 12 Sudoeste 32 Sudoeste 0 -- -- 76
2020-06-12 06:00:00 7.1 21 Sudoeste 46 Sudoeste 0 -- -- 74
2020-06-12 05:00:00 7.2 16 Sudoeste 37 Sudoeste 0 -- -- 75
2020-06-12 04:00:00 7.6 13 Sudoeste 35 Sudoeste 0 -- -- 73
2020-06-12 03:00:00 8.2 12 Sudoeste 21 Sudoeste 0 -- -- 71
2020-06-12 02:00:00 9 10 Sudoeste 26 Sudoeste 0 -- -- 68
2020-06-12 01:00:00 7.9 5 Sur 12 Noroeste 0 -- -- 91
2020-06-12 00:00:00 12.6 11 Oeste 32 Oeste 0 -- -- 66
2020-06-11 23:00:00 13.6 12 Sudoeste 26 Sudoeste 0 -- -- 61
2020-06-11 22:00:00 14.4 12 Oeste 31 Sudoeste 0 -- -- 56
2020-06-11 21:00:00 16.1 17 Sudoeste 36 Sudoeste 0 -- -- 49
2020-06-11 20:00:00 16.5 18 Sudoeste 46 Oeste 0 -- -- 47
2020-06-11 19:00:00 18.2 21 Sudoeste 49 Sudoeste 0 -- -- 41
2020-06-11 18:00:00 20.3 24 Sudoeste 48 Sudoeste 0 -- -- 39
2020-06-11 17:00:00 16.9 16 Sudoeste 37 Oeste 0 -- -- 56
2020-06-11 16:00:00 19.2 21 Oeste 42 Sudoeste 0 -- -- 52
2020-06-11 15:00:00 15.9 17 Sudoeste 32 Sudoeste 0 -- -- 61
2020-06-11 14:00:00 16.3 21 Sudoeste 45 Sudoeste 0 -- -- 57
2020-06-11 13:00:00 17.5 25 Sudoeste 42 Oeste 0 -- -- 55
2020-06-11 12:00:00 15.9 23 Sudoeste 46 Sudoeste 0 -- -- 59
2020-06-11 11:00:00 15.4 15 Sudoeste 28 Sudoeste 0 -- -- 61
2020-06-11 10:00:00 13.7 11 Sur 22 Sur 0 -- -- 68
2020-06-11 09:00:00 12.1 6 Sur 34 Sudoeste 0 -- -- 73
2020-06-11 08:00:00 11.9 15 Sudoeste 32 Sudoeste 0 -- -- 70
2020-06-11 07:00:00 12.4 8 Sur 21 Sur 0 -- -- 67
2020-06-11 06:00:00 9.7 2 Norte 8 Oeste 0 -- -- 82
2020-06-11 05:00:00 9.3 2 Sur 5 Sudeste 0 -- -- 91
2020-06-11 04:00:00 9.5 2 Sudeste 5 Sur 0 -- -- 89
2020-06-11 03:00:00 9.8 4 Sur 8 Sur 0 -- -- 86
2020-06-11 02:00:00 9.7 0 Calma 5 Noroeste 0 -- -- 86
2020-06-11 01:00:00 9.9 0 Calma 6 Sudeste 0 -- -- 85
2020-06-11 00:00:00 10 4 Sudeste 6 Sudeste 0 -- -- 84